sensor_id;sensor_type;location;lat;lon;timestamp;pressure;altitude;pressure_sealevel;temperature;humidity
33265;BME280;31404;53.974;-1.086;2022-10-17T00:00:37;100580.52;;;10.06;100.00
33265;BME280;31404;53.974;-1.086;2022-10-17T00:10:37;100576.44;;;10.99;100.00
33265;BME280;31404;53.974;-1.086;2022-10-17T00:15:36;100563.57;;;10.08;100.00
33265;BME280;31404;53.974;-1.086;2022-10-17T00:20:35;100548.87;;;10.10;100.00
33265;BME280;31404;53.974;-1.086;2022-10-17T00:25:36;100563.98;;;9.19;100.00
33265;BME280;31404;53.974;-1.086;2022-10-17T00:30:38;100532.97;;;9.60;100.00
33265;BME280;31404;53.974;-1.086;2022-10-17T00:35:38;100527.26;;;10.66;100.00
33265;BME280;31404;53.974;-1.086;2022-10-17T00:40:35;100536.43;;;10.76;100.00
33265;BME280;31404;53.974;-1.086;2022-10-17T00:45:38;100547.05;;;9.55;100.00
33265;BME280;31404;53.974;-1.086;2022-10-17T00:50:41;100541.13;;;10.02;100.00
33265;BME280;31404;53.974;-1.086;2022-10-17T01:00:36;100541.17;;;10.51;100.00
33265;BME280;31404;53.974;-1.086;2022-10-17T01:05:37;100534.59;;;10.82;100.00
33265;BME280;31404;53.974;-1.086;2022-10-17T01:40:43;100512.46;;;10.52;100.00
33265;BME280;31404;53.974;-1.086;2022-10-17T01:45:39;100519.01;;;10.18;100.00
33265;BME280;31404;53.974;-1.086;2022-10-17T01:55:41;100503.93;;;11.87;100.00
33265;BME280;31404;53.974;-1.086;2022-10-17T02:00:39;100492.96;;;10.72;100.00
33265;BME280;31404;53.974;-1.086;2022-10-17T02:05:37;100520.20;;;10.56;100.00
33265;BME280;31404;53.974;-1.086;2022-10-17T02:10:38;100527.70;;;10.64;100.00
33265;BME280;31404;53.974;-1.086;2022-10-17T02:25:37;100519.55;;;10.39;100.00
33265;BME280;31404;53.974;-1.086;2022-10-17T02:35:38;100516.69;;;10.85;100.00
33265;BME280;31404;53.974;-1.086;2022-10-17T02:40:37;100513.47;;;10.66;100.00
33265;BME280;31404;53.974;-1.086;2022-10-17T02:45:39;100521.09;;;10.20;100.00
33265;BME280;31404;53.974;-1.086;2022-10-17T02:50:42;100510.20;;;10.19;100.00
33265;BME280;31404;53.974;-1.086;2022-10-17T03:00:37;100537.52;;;9.99;100.00
33265;BME280;31404;53.974;-1.086;2022-10-17T03:05:38;100545.49;;;10.33;100.00
33265;BME280;31404;53.974;-1.086;2022-10-17T03:10:37;100540.26;;;10.04;100.00
33265;BME280;31404;53.974;-1.086;2022-10-17T03:15:37;100540.75;;;10.60;100.00
33265;BME280;31404;53.974;-1.086;2022-10-17T03:20:38;100546.18;;;10.75;100.00
33265;BME280;31404;53.974;-1.086;2022-10-17T03:25:36;100548.20;;;11.07;100.00
33265;BME280;31404;53.974;-1.086;2022-10-17T03:30:37;100568.68;;;11.00;100.00
33265;BME280;31404;53.974;-1.086;2022-10-17T03:35:38;100576.89;;;11.43;100.00
33265;BME280;31404;53.974;-1.086;2022-10-17T03:40:38;100568.03;;;10.85;100.00
33265;BME280;31404;53.974;-1.086;2022-10-17T03:45:35;100568.89;;;11.62;100.00
33265;BME280;31404;53.974;-1.086;2022-10-17T03:50:39;100585.01;;;11.08;100.00
33265;BME280;31404;53.974;-1.086;2022-10-17T03:55:38;100584.82;;;11.13;100.00
33265;BME280;31404;53.974;-1.086;2022-10-17T04:00:36;100592.57;;;11.22;100.00
33265;BME280;31404;53.974;-1.086;2022-10-17T04:05:39;100609.52;;;11.81;100.00
33265;BME280;31404;53.974;-1.086;2022-10-17T04:10:39;100599.49;;;12.22;100.00
33265;BME280;31404;53.974;-1.086;2022-10-17T04:15:38;100597.06;;;11.87;100.00
33265;BME280;31404;53.974;-1.086;2022-10-17T04:20:39;100612.47;;;12.03;100.00
33265;BME280;31404;53.974;-1.086;2022-10-17T04:25:38;100609.05;;;12.43;100.00
33265;BME280;31404;53.974;-1.086;2022-10-17T04:30:38;100615.56;;;12.21;100.00
33265;BME280;31404;53.974;-1.086;2022-10-17T04:35:35;100614.39;;;12.66;100.00
33265;BME280;31404;53.974;-1.086;2022-10-17T04:40:40;100624.40;;;12.51;100.00
33265;BME280;31404;53.974;-1.086;2022-10-17T04:45:40;100627.69;;;12.36;100.00
33265;BME280;31404;53.974;-1.086;2022-10-17T04:50:37;100647.28;;;11.84;100.00
33265;BME280;31404;53.974;-1.086;2022-10-17T04:55:38;100655.31;;;11.93;100.00
33265;BME280;31404;53.974;-1.086;2022-10-17T05:00:37;100645.16;;;11.74;100.00
33265;BME280;31404;53.974;-1.086;2022-10-17T05:05:38;100640.24;;;13.19;100.00
33265;BME280;31404;53.974;-1.086;2022-10-17T05:10:38;100651.02;;;13.62;100.00
33265;BME280;31404;53.974;-1.086;2022-10-17T05:15:38;100651.58;;;12.96;100.00
33265;BME280;31404;53.974;-1.086;2022-10-17T05:20:38;100649.27;;;13.38;100.00
33265;BME280;31404;53.974;-1.086;2022-10-17T05:25:40;100666.39;;;13.89;100.00
33265;BME280;31404;53.974;-1.086;2022-10-17T05:30:37;100668.37;;;13.18;100.00
33265;BME280;31404;53.974;-1.086;2022-10-17T05:35:36;100670.17;;;13.84;100.00
33265;BME280;31404;53.974;-1.086;2022-10-17T05:40:37;100683.47;;;13.48;100.00
33265;BME280;31404;53.974;-1.086;2022-10-17T05:45:37;100690.25;;;13.21;100.00
33265;BME280;31404;53.974;-1.086;2022-10-17T05:50:35;100703.90;;;12.58;100.00
33265;BME280;31404;53.974;-1.086;2022-10-17T05:55:38;100718.08;;;12.15;100.00
33265;BME280;31404;53.974;-1.086;2022-10-17T06:00:36;100728.06;;;13.43;100.00
33265;BME280;31404;53.974;-1.086;2022-10-17T06:05:35;100748.53;;;13.79;100.00
33265;BME280;31404;53.974;-1.086;2022-10-17T06:10:38;100758.20;;;13.42;100.00
33265;BME280;31404;53.974;-1.086;2022-10-17T06:15:35;100761.55;;;13.54;100.00
33265;BME280;31404;53.974;-1.086;2022-10-17T06:20:34;100784.53;;;12.73;100.00
33265;BME280;31404;53.974;-1.086;2022-10-17T06:25:35;100787.48;;;13.35;100.00
33265;BME280;31404;53.974;-1.086;2022-10-17T06:30:37;100797.30;;;13.19;100.00
33265;BME280;31404;53.974;-1.086;2022-10-17T06:35:37;100810.34;;;12.43;100.00
33265;BME280;31404;53.974;-1.086;2022-10-17T06:40:37;100812.48;;;11.85;100.00
33265;BME280;31404;53.974;-1.086;2022-10-17T06:45:38;100823.95;;;12.68;100.00
33265;BME280;31404;53.974;-1.086;2022-10-17T06:50:36;100826.79;;;13.83;100.00
33265;BME280;31404;53.974;-1.086;2022-10-17T06:55:36;100843.27;;;14.63;100.00
33265;BME280;31404;53.974;-1.086;2022-10-17T07:00:38;100857.13;;;14.35;100.00
33265;BME280;31404;53.974;-1.086;2022-10-17T07:05:38;100867.54;;;14.66;100.00
33265;BME280;31404;53.974;-1.086;2022-10-17T07:10:37;100878.77;;;14.36;100.00
33265;BME280;31404;53.974;-1.086;2022-10-17T07:15:37;100896.92;;;12.92;100.00
33265;BME280;31404;53.974;-1.086;2022-10-17T07:20:34;100905.95;;;13.01;100.00
33265;BME280;31404;53.974;-1.086;2022-10-17T07:25:40;100922.55;;;12.60;100.00
33265;BME280;31404;53.974;-1.086;2022-10-17T07:30:35;100928.31;;;12.49;100.00
33265;BME280;31404;53.974;-1.086;2022-10-17T07:35:38;100940.39;;;12.26;100.00
33265;BME280;31404;53.974;-1.086;2022-10-17T07:40:36;100951.52;;;13.00;100.00
33265;BME280;31404;53.974;-1.086;2022-10-17T07:45:34;100963.56;;;12.36;100.00
33265;BME280;31404;53.974;-1.086;2022-10-17T07:50:34;100976.57;;;11.63;100.00
33265;BME280;31404;53.974;-1.086;2022-10-17T07:55:39;100981.68;;;12.69;100.00
33265;BME280;31404;53.974;-1.086;2022-10-17T08:00:38;101001.16;;;12.66;100.00
33265;BME280;31404;53.974;-1.086;2022-10-17T08:10:37;101016.96;;;12.54;100.00
33265;BME280;31404;53.974;-1.086;2022-10-17T08:15:36;101022.59;;;11.64;100.00
33265;BME280;31404;53.974;-1.086;2022-10-17T08:20:36;101033.34;;;11.10;100.00
33265;BME280;31404;53.974;-1.086;2022-10-17T08:25:37;101044.81;;;12.14;100.00
33265;BME280;31404;53.974;-1.086;2022-10-17T08:30:37;101038.43;;;11.98;100.00
33265;BME280;31404;53.974;-1.086;2022-10-17T08:35:38;101047.94;;;12.30;100.00
33265;BME280;31404;53.974;-1.086;2022-10-17T08:40:39;101047.22;;;13.27;100.00
33265;BME280;31404;53.974;-1.086;2022-10-17T08:50:41;101062.33;;;11.49;100.00
33265;BME280;31404;53.974;-1.086;2022-10-17T08:55:36;101065.99;;;12.65;100.00
33265;BME280;31404;53.974;-1.086;2022-10-17T09:00:35;101066.94;;;12.05;100.00
33265;BME280;31404;53.974;-1.086;2022-10-17T09:05:44;101074.75;;;11.11;100.00
33265;BME280;31404;53.974;-1.086;2022-10-17T09:25:41;101095.52;;;12.05;100.00
33265;BME280;31404;53.974;-1.086;2022-10-17T09:35:35;101104.34;;;11.74;100.00
33265;BME280;31404;53.974;-1.086;2022-10-17T09:40:35;101103.94;;;12.00;100.00
33265;BME280;31404;53.974;-1.086;2022-10-17T09:50:39;101120.67;;;11.01;100.00
33265;BME280;31404;53.974;-1.086;2022-10-17T09:55:40;101119.06;;;11.64;100.00
33265;BME280;31404;53.974;-1.086;2022-10-17T10:00:37;101130.12;;;10.66;100.00
33265;BME280;31404;53.974;-1.086;2022-10-17T10:05:38;101144.13;;;10.66;100.00
33265;BME280;31404;53.974;-1.086;2022-10-17T10:10:38;101143.78;;;11.28;100.00
33265;BME280;31404;53.974;-1.086;2022-10-17T10:15:40;101162.30;;;11.30;100.00
33265;BME280;31404;53.974;-1.086;2022-10-17T10:20:38;101167.02;;;11.32;100.00
33265;BME280;31404;53.974;-1.086;2022-10-17T10:25:37;101169.74;;;11.38;100.00
33265;BME280;31404;53.974;-1.086;2022-10-17T10:30:37;101178.17;;;11.78;100.00
33265;BME280;31404;53.974;-1.086;2022-10-17T10:35:35;101193.75;;;11.01;100.00
33265;BME280;31404;53.974;-1.086;2022-10-17T10:45:41;101205.23;;;11.36;98.38
33265;BME280;31404;53.974;-1.086;2022-10-17T10:50:41;101205.59;;;11.58;97.68
33265;BME280;31404;53.974;-1.086;2022-10-17T10:55:39;101220.38;;;11.89;96.13
33265;BME280;31404;53.974;-1.086;2022-10-17T11:00:38;101224.39;;;11.23;97.50
33265;BME280;31404;53.974;-1.086;2022-10-17T11:05:42;101221.53;;;11.73;96.77
33265;BME280;31404;53.974;-1.086;2022-10-17T11:25:36;101261.07;;;11.69;87.46
33265;BME280;31404;53.974;-1.086;2022-10-17T11:30:45;101267.30;;;11.45;87.82
33265;BME280;31404;53.974;-1.086;2022-10-17T11:35:39;101274.45;;;11.19;87.40
33265;BME280;31404;53.974;-1.086;2022-10-17T11:45:42;101286.40;;;11.20;86.96
33265;BME280;31404;53.974;-1.086;2022-10-17T11:50:39;101296.26;;;11.21;87.78
33265;BME280;31404;53.974;-1.086;2022-10-17T11:55:40;101293.19;;;12.69;85.00
33265;BME280;31404;53.974;-1.086;2022-10-17T12:05:40;101319.44;;;11.73;85.25
33265;BME280;31404;53.974;-1.086;2022-10-17T12:15:38;101320.95;;;12.15;83.10
33265;BME280;31404;53.974;-1.086;2022-10-17T12:20:37;101319.16;;;12.84;77.62
33265;BME280;31404;53.974;-1.086;2022-10-17T12:25:39;101330.93;;;13.34;77.37
33265;BME280;31404;53.974;-1.086;2022-10-17T12:35:40;101322.25;;;12.84;73.76
33265;BME280;31404;53.974;-1.086;2022-10-17T12:55:38;101344.13;;;12.58;69.71
33265;BME280;31404;53.974;-1.086;2022-10-17T13:00:43;101356.36;;;12.82;68.38
33265;BME280;31404;53.974;-1.086;2022-10-17T13:05:44;101361.93;;;12.96;67.47
33265;BME280;31404;53.974;-1.086;2022-10-17T13:10:38;101370.53;;;12.97;66.94
33265;BME280;31404;53.974;-1.086;2022-10-17T13:15:38;101376.03;;;13.78;64.86
33265;BME280;31404;53.974;-1.086;2022-10-17T13:20:38;101375.29;;;13.64;64.54
33265;BME280;31404;53.974;-1.086;2022-10-17T13:25:40;101392.83;;;14.39;62.42
33265;BME280;31404;53.974;-1.086;2022-10-17T13:30:39;101386.42;;;13.71;63.80
33265;BME280;31404;53.974;-1.086;2022-10-17T13:35:30;101385.82;;;13.88;64.40
33265;BME280;31404;53.974;-1.086;2022-10-17T13:40:41;101380.99;;;13.87;65.32
33265;BME280;31404;53.974;-1.086;2022-10-17T13:45:37;101383.71;;;13.98;64.44
33265;BME280;31404;53.974;-1.086;2022-10-17T13:50:41;101392.82;;;12.85;66.91
33265;BME280;31404;53.974;-1.086;2022-10-17T13:55:38;101394.83;;;13.79;65.47
33265;BME280;31404;53.974;-1.086;2022-10-17T14:00:38;101397.08;;;14.24;63.18
33265;BME280;31404;53.974;-1.086;2022-10-17T14:10:36;101410.98;;;12.98;65.79
33265;BME280;31404;53.974;-1.086;2022-10-17T14:20:37;101422.72;;;12.35;67.48
33265;BME280;31404;53.974;-1.086;2022-10-17T14:25:38;101426.83;;;12.58;67.35
33265;BME280;31404;53.974;-1.086;2022-10-17T14:30:38;101428.40;;;12.37;67.88
33265;BME280;31404;53.974;-1.086;2022-10-17T14:35:37;101430.80;;;12.15;69.91
33265;BME280;31404;53.974;-1.086;2022-10-17T14:50:38;101448.70;;;12.41;68.71
33265;BME280;31404;53.974;-1.086;2022-10-17T14:55:38;101457.59;;;12.21;68.76
33265;BME280;31404;53.974;-1.086;2022-10-17T15:00:34;101473.59;;;12.00;68.83
33265;BME280;31404;53.974;-1.086;2022-10-17T15:05:39;101485.12;;;12.23;68.16
33265;BME280;31404;53.974;-1.086;2022-10-17T15:10:38;101487.48;;;12.56;66.95
33265;BME280;31404;53.974;-1.086;2022-10-17T15:15:39;101483.73;;;12.78;65.73
33265;BME280;31404;53.974;-1.086;2022-10-17T15:20:34;101488.17;;;12.48;66.35
33265;BME280;31404;53.974;-1.086;2022-10-17T15:25:38;101490.09;;;12.43;66.40
33265;BME280;31404;53.974;-1.086;2022-10-17T15:30:35;101500.93;;;12.23;67.31
33265;BME280;31404;53.974;-1.086;2022-10-17T15:35:35;101506.84;;;12.44;66.62
33265;BME280;31404;53.974;-1.086;2022-10-17T15:40:34;101504.73;;;12.45;67.09
33265;BME280;31404;53.974;-1.086;2022-10-17T15:45:37;101512.27;;;12.66;65.77
33265;BME280;31404;53.974;-1.086;2022-10-17T15:50:35;101522.85;;;12.67;66.14
33265;BME280;31404;53.974;-1.086;2022-10-17T15:55:36;101530.75;;;12.78;65.90
33265;BME280;31404;53.974;-1.086;2022-10-17T16:00:39;101541.32;;;12.71;65.00
33265;BME280;31404;53.974;-1.086;2022-10-17T16:05:37;101552.08;;;13.17;64.85
33265;BME280;31404;53.974;-1.086;2022-10-17T16:10:37;101559.78;;;13.12;64.81
33265;BME280;31404;53.974;-1.086;2022-10-17T16:15:42;101572.74;;;13.17;64.81
33265;BME280;31404;53.974;-1.086;2022-10-17T16:20:38;101591.13;;;13.95;62.66
33265;BME280;31404;53.974;-1.086;2022-10-17T16:25:35;101604.79;;;13.32;63.35
33265;BME280;31404;53.974;-1.086;2022-10-17T16:35:37;101617.17;;;15.26;59.35
33265;BME280;31404;53.974;-1.086;2022-10-17T16:40:39;101632.30;;;13.89;60.80
33265;BME280;31404;53.974;-1.086;2022-10-17T16:45:35;101637.81;;;15.10;58.36
33265;BME280;31404;53.974;-1.086;2022-10-17T16:50:38;101653.01;;;13.93;61.09
33265;BME280;31404;53.974;-1.086;2022-10-17T16:55:38;101661.87;;;13.94;61.00
33265;BME280;31404;53.974;-1.086;2022-10-17T17:00:38;101664.37;;;14.80;60.01
33265;BME280;31404;53.974;-1.086;2022-10-17T17:05:35;101689.87;;;14.71;60.06
33265;BME280;31404;53.974;-1.086;2022-10-17T17:15:37;101712.77;;;14.76;60.11
33265;BME280;31404;53.974;-1.086;2022-10-17T17:20:37;101727.52;;;14.82;59.99
33265;BME280;31404;53.974;-1.086;2022-10-17T17:25:36;101734.85;;;14.77;59.94
33265;BME280;31404;53.974;-1.086;2022-10-17T17:30:36;101741.49;;;14.88;59.67
33265;BME280;31404;53.974;-1.086;2022-10-17T17:40:36;101766.45;;;16.21;57.02
33265;BME280;31404;53.974;-1.086;2022-10-17T17:50:37;101782.89;;;15.95;56.85
33265;BME280;31404;53.974;-1.086;2022-10-17T17:55:38;101794.72;;;14.97;59.12
33265;BME280;31404;53.974;-1.086;2022-10-17T18:00:35;101786.25;;;14.22;60.98
33265;BME280;31404;53.974;-1.086;2022-10-17T18:10:39;101798.80;;;15.00;59.22
33265;BME280;31404;53.974;-1.086;2022-10-17T18:15:39;101815.62;;;15.12;59.22
33265;BME280;31404;53.974;-1.086;2022-10-17T18:25:36;101835.12;;;13.97;61.31
33265;BME280;31404;53.974;-1.086;2022-10-17T18:30:36;101835.67;;;13.93;61.65
33265;BME280;31404;53.974;-1.086;2022-10-17T18:35:37;101844.61;;;13.43;63.64
33265;BME280;31404;53.974;-1.086;2022-10-17T18:40:35;101860.36;;;13.43;63.81
33265;BME280;31404;53.974;-1.086;2022-10-17T18:45:35;101873.04;;;13.01;65.34
33265;BME280;31404;53.974;-1.086;2022-10-17T18:50:38;101879.07;;;13.91;63.66
33265;BME280;31404;53.974;-1.086;2022-10-17T18:55:39;101895.95;;;13.37;64.99
33265;BME280;31404;53.974;-1.086;2022-10-17T19:00:35;101901.78;;;14.06;63.19
33265;BME280;31404;53.974;-1.086;2022-10-17T19:05:37;101898.40;;;12.53;67.55
33265;BME280;31404;53.974;-1.086;2022-10-17T19:10:37;101879.15;;;12.02;70.27
33265;BME280;31404;53.974;-1.086;2022-10-17T19:15:36;101883.20;;;11.46;73.01
33265;BME280;31404;53.974;-1.086;2022-10-17T19:20:36;101896.21;;;11.00;75.00
33265;BME280;31404;53.974;-1.086;2022-10-17T19:25:38;101895.76;;;12.06;70.97
33265;BME280;31404;53.974;-1.086;2022-10-17T19:30:35;101908.06;;;11.43;74.13
33265;BME280;31404;53.974;-1.086;2022-10-17T19:35:35;101916.50;;;11.81;71.46
33265;BME280;31404;53.974;-1.086;2022-10-17T19:45:38;101940.69;;;11.28;74.68
33265;BME280;31404;53.974;-1.086;2022-10-17T19:50:35;101943.94;;;10.87;75.91
33265;BME280;31404;53.974;-1.086;2022-10-17T19:55:37;101950.44;;;12.36;70.73
33265;BME280;31404;53.974;-1.086;2022-10-17T20:00:34;101963.82;;;11.41;72.08
33265;BME280;31404;53.974;-1.086;2022-10-17T20:05:36;101972.35;;;11.82;70.32
33265;BME280;31404;53.974;-1.086;2022-10-17T20:10:35;101968.63;;;10.17;76.57
33265;BME280;31404;53.974;-1.086;2022-10-17T20:15:36;101954.67;;;9.61;78.97
33265;BME280;31404;53.974;-1.086;2022-10-17T20:20:36;101954.57;;;9.19;82.25
33265;BME280;31404;53.974;-1.086;2022-10-17T20:25:36;101962.31;;;9.09;82.46
33265;BME280;31404;53.974;-1.086;2022-10-17T20:30:34;101960.65;;;8.96;83.40
33265;BME280;31404;53.974;-1.086;2022-10-17T20:35:40;101955.36;;;9.66;79.98
33265;BME280;31404;53.974;-1.086;2022-10-17T20:40:38;101954.43;;;9.56;80.44
33265;BME280;31404;53.974;-1.086;2022-10-17T20:45:38;101961.21;;;9.28;80.91
33265;BME280;31404;53.974;-1.086;2022-10-17T20:50:36;101964.03;;;9.56;80.44
33265;BME280;31404;53.974;-1.086;2022-10-17T20:55:36;101974.35;;;10.84;73.55
33265;BME280;31404;53.974;-1.086;2022-10-17T21:00:39;101994.58;;;11.46;71.30
33265;BME280;31404;53.974;-1.086;2022-10-17T21:05:38;102006.23;;;11.73;70.09
33265;BME280;31404;53.974;-1.086;2022-10-17T21:10:35;102018.99;;;11.61;70.59
33265;BME280;31404;53.974;-1.086;2022-10-17T21:15:37;102022.20;;;10.59;74.29
33265;BME280;31404;53.974;-1.086;2022-10-17T21:20:34;102034.33;;;9.38;80.67
33265;BME280;31404;53.974;-1.086;2022-10-17T21:25:35;102040.86;;;9.65;81.02
33265;BME280;31404;53.974;-1.086;2022-10-17T21:30:36;102044.40;;;8.91;86.26
33265;BME280;31404;53.974;-1.086;2022-10-17T21:35:34;102055.22;;;8.81;86.06
33265;BME280;31404;53.974;-1.086;2022-10-17T21:40:36;102061.18;;;9.81;82.09
33265;BME280;31404;53.974;-1.086;2022-10-17T21:45:37;102052.44;;;9.81;83.29
33265;BME280;31404;53.974;-1.086;2022-10-17T21:50:39;102050.38;;;9.40;84.26
33265;BME280;31404;53.974;-1.086;2022-10-17T21:55:41;102067.83;;;8.55;89.70
33265;BME280;31404;53.974;-1.086;2022-10-17T22:00:39;102078.16;;;9.13;86.67
33265;BME280;31404;53.974;-1.086;2022-10-17T22:05:36;102089.80;;;10.02;82.01
33265;BME280;31404;53.974;-1.086;2022-10-17T22:10:38;102115.72;;;11.02;78.68
33265;BME280;31404;53.974;-1.086;2022-10-17T22:15:38;102125.13;;;11.46;75.39
33265;BME280;31404;53.974;-1.086;2022-10-17T22:20:38;102132.31;;;11.24;77.33
33265;BME280;31404;53.974;-1.086;2022-10-17T22:30:37;102139.93;;;10.99;77.96
33265;BME280;31404;53.974;-1.086;2022-10-17T22:35:36;102142.88;;;10.34;81.71
33265;BME280;31404;53.974;-1.086;2022-10-17T22:40:36;102143.14;;;11.92;74.06
33265;BME280;31404;53.974;-1.086;2022-10-17T22:45:37;102159.12;;;13.47;69.26
33265;BME280;31404;53.974;-1.086;2022-10-17T22:50:39;102174.59;;;13.89;66.02
33265;BME280;31404;53.974;-1.086;2022-10-17T22:55:36;102199.65;;;13.07;67.94
33265;BME280;31404;53.974;-1.086;2022-10-17T23:00:38;102199.88;;;14.16;65.85
33265;BME280;31404;53.974;-1.086;2022-10-17T23:05:37;102206.80;;;14.49;64.33
33265;BME280;31404;53.974;-1.086;2022-10-17T23:10:36;102216.91;;;14.70;62.93
33265;BME280;31404;53.974;-1.086;2022-10-17T23:15:34;102229.76;;;14.93;62.27
33265;BME280;31404;53.974;-1.086;2022-10-17T23:20:40;102239.67;;;13.32;66.75
33265;BME280;31404;53.974;-1.086;2022-10-17T23:30:36;102241.27;;;15.00;62.91
33265;BME280;31404;53.974;-1.086;2022-10-17T23:35:37;102253.29;;;13.33;67.31
33265;BME280;31404;53.974;-1.086;2022-10-17T23:40:39;102261.52;;;13.13;69.52
33265;BME280;31404;53.974;-1.086;2022-10-17T23:45:38;102261.39;;;13.34;68.90
33265;BME280;31404;53.974;-1.086;2022-10-17T23:50:37;102268.66;;;14.73;63.80
33265;BME280;31404;53.974;-1.086;2022-10-17T23:55:34;102285.67;;;11.54;75.89
